createdAt,value
2023-04-02T00:00:04.101Z,99123.34
2023-04-02T00:03:22.686Z,99114.09
2023-04-02T00:06:33.385Z,99128.84
2023-04-02T00:09:38.427Z,99122.88
2023-04-02T00:12:41.190Z,99102.44
2023-04-02T00:15:46.820Z,99128.38
2023-04-02T00:18:55.767Z,99127.72
2023-04-02T00:22:00.743Z,99126.44
2023-04-02T00:25:13.652Z,99131.50
2023-04-02T00:28:21.348Z,99140.63
2023-04-02T00:31:24.748Z,99144.00
2023-04-02T00:34:37.900Z,99147.81
2023-04-02T00:37:42.133Z,99153.78
2023-04-02T00:40:45.017Z,99133.63
2023-04-02T00:43:53.227Z,99148.00
2023-04-02T00:46:58.561Z,99137.69
2023-04-02T00:50:23.573Z,99151.41
2023-04-02T00:53:30.337Z,99155.97
2023-04-02T00:56:55.029Z,99144.22
2023-04-02T01:00:01.387Z,99161.44
2023-04-02T01:03:16.732Z,99154.44
2023-04-02T01:06:19.325Z,99141.88
2023-04-02T01:09:39.429Z,99159.00
2023-04-02T01:12:58.826Z,99165.22
2023-04-02T01:16:11.632Z,99158.63
2023-04-02T01:19:23.261Z,99181.22
2023-04-02T01:22:55.446Z,99175.25
2023-04-02T01:26:03.496Z,99180.75
2023-04-02T01:29:24.297Z,99186.84
2023-04-02T01:32:30.597Z,99166.66
2023-04-02T01:35:38.897Z,99180.38
2023-04-02T01:38:52.398Z,99188.03
2023-04-02T01:42:09.812Z,99173.00
2023-04-02T01:45:18.255Z,99181.34
2023-04-02T01:48:30.085Z,99186.53
2023-04-02T01:51:34.870Z,99187.00
2023-04-02T01:54:40.813Z,99198.28
2023-04-02T01:57:49.407Z,99197.41
2023-04-02T02:01:00.989Z,99201.00
2023-04-02T02:04:06.139Z,99186.81
2023-04-02T02:07:16.936Z,99199.69
2023-04-02T02:10:28.236Z,99204.09
2023-04-02T02:13:32.456Z,99181.03
2023-04-02T02:16:42.468Z,99186.41
2023-04-02T02:20:11.900Z,99205.16
2023-04-02T02:23:15.522Z,99175.53
2023-04-02T02:26:18.837Z,99195.97
2023-04-02T02:29:24.390Z,99200.59
2023-04-02T02:32:33.167Z,99203.31
2023-04-02T02:35:39.401Z,99217.09
2023-04-02T02:38:57.104Z,99198.91
2023-04-02T02:42:28.642Z,99219.59
2023-04-02T02:45:38.406Z,99211.88
2023-04-02T02:48:42.608Z,99194.81
2023-04-02T02:51:59.002Z,99215.47
2023-04-02T02:55:12.926Z,99219.22
2023-04-02T02:58:33.489Z,99217.88
2023-04-02T03:01:45.252Z,99215.31
2023-04-02T03:04:53.655Z,99219.13
2023-04-02T03:08:02.614Z,99219.88
2023-04-02T03:11:12.599Z,99201.88
2023-04-02T03:14:38.118Z,99241.44
2023-04-02T03:17:56.886Z,99233.59
2023-04-02T03:21:31.471Z,99219.13
2023-04-02T03:24:42.363Z,99236.34
2023-04-02T03:27:49.427Z,99220.31
2023-04-02T03:30:59.460Z,99232.28
2023-04-02T03:34:11.542Z,99220.41
2023-04-02T03:37:26.688Z,99242.56
2023-04-02T03:40:35.073Z,99226.66
2023-04-02T03:43:42.869Z,99245.59
2023-04-02T03:46:57.822Z,99223.59
2023-04-02T03:50:19.030Z,99225.28
2023-04-02T03:53:24.580Z,99246.69
2023-04-02T03:56:29.837Z,99247.63
2023-04-02T03:59:47.892Z,99237.03
2023-04-02T04:02:57.618Z,99246.63
2023-04-02T04:06:12.057Z,99269.94
2023-04-02T04:09:33.607Z,99257.16
2023-04-02T04:12:41.146Z,99259.97
2023-04-02T04:15:56.605Z,99271.16
2023-04-02T04:19:06.680Z,99250.38
2023-04-02T04:22:10.831Z,99262.69
2023-04-02T04:25:26.031Z,99262.00
2023-04-02T04:28:38.879Z,99271.50
2023-04-02T04:31:47.706Z,99285.81
2023-04-02T04:34:53.587Z,99270.56
2023-04-02T04:38:15.053Z,99276.16
2023-04-02T04:41:24.976Z,99269.53
2023-04-02T04:44:51.925Z,99265.59
2023-04-02T04:48:00.620Z,99283.84
2023-04-02T04:51:17.573Z,99282.59
2023-04-02T04:54:22.510Z,99268.69
2023-04-02T04:57:36.964Z,99296.66
2023-04-02T05:00:57.101Z,99282.84
2023-04-02T05:04:31.593Z,99296.97
2023-04-02T05:07:48.521Z,99304.66
2023-04-02T05:11:06.063Z,99283.81
2023-04-02T05:14:21.313Z,99288.28
2023-04-02T05:17:29.726Z,99310.28
2023-04-02T05:20:55.172Z,99315.44
2023-04-02T05:24:26.249Z,99303.72
2023-04-02T05:27:48.739Z,99313.41
2023-04-02T05:31:03.252Z,99311.16
2023-04-02T05:34:08.149Z,99304.78
2023-04-02T05:37:19.571Z,99312.19
2023-04-02T05:40:46.913Z,99315.41
2023-04-02T05:43:56.382Z,99303.84
2023-04-02T05:47:25.450Z,99315.28
2023-04-02T05:50:37.038Z,99308.50
2023-04-02T05:53:51.192Z,99309.81
2023-04-02T05:57:03.509Z,99313.34
2023-04-02T06:00:13.052Z,99303.31
2023-04-02T06:03:29.256Z,99314.25
2023-04-02T06:06:42.617Z,99319.28
2023-04-02T06:09:56.800Z,99294.47
2023-04-02T06:13:06.960Z,99319.44
2023-04-02T06:16:16.412Z,99326.81
2023-04-02T06:19:31.654Z,99313.09
2023-04-02T06:22:40.357Z,99330.94
2023-04-02T06:25:50.468Z,99321.63
2023-04-02T06:29:25.277Z,99331.63
2023-04-02T06:32:29.923Z,99331.59
2023-04-02T06:35:41.338Z,99327.75
2023-04-02T06:38:45.398Z,99314.28
2023-04-02T06:41:55.986Z,99323.56
2023-04-02T06:45:06.513Z,99326.75
2023-04-02T06:48:23.245Z,99318.75
2023-04-02T06:51:33.251Z,99338.88
2023-04-02T06:54:38.129Z,99355.59
2023-04-02T06:57:43.363Z,99345.88
2023-04-02T07:00:51.399Z,99356.16
2023-04-02T07:04:04.796Z,99339.53
2023-04-02T07:07:13.329Z,99351.97
2023-04-02T07:10:20.301Z,99363.63
2023-04-02T07:13:25.306Z,99348.66
2023-04-02T07:16:31.424Z,99385.78
2023-04-02T07:19:33.191Z,99362.59
2023-04-02T07:22:35.123Z,99364.13
2023-04-02T07:25:38.340Z,99368.94
2023-04-02T07:28:40.597Z,99381.31
2023-04-02T07:31:43.950Z,99379.94
2023-04-02T07:34:46.393Z,99383.81
2023-04-02T07:37:49.183Z,99372.44
2023-04-02T07:40:51.464Z,99397.47
2023-04-02T07:43:54.536Z,99382.16
2023-04-02T07:46:59.300Z,99389.19
2023-04-02T07:50:02.616Z,99392.59
2023-04-02T07:53:07.658Z,99401.47
2023-04-02T07:56:15.531Z,99394.63
2023-04-02T07:59:21.248Z,99409.09
2023-04-02T08:02:24.236Z,99381.72
2023-04-02T08:05:28.368Z,99403.16
2023-04-02T08:08:31.024Z,99407.41
2023-04-02T08:11:33.791Z,99408.03
2023-04-02T08:14:36.068Z,99363.66
2023-04-02T08:17:38.877Z,99399.19
2023-04-02T08:20:42.259Z,99408.75
2023-04-02T08:23:45.210Z,99408.03
2023-04-02T08:26:49.298Z,99402.81
2023-04-02T08:29:52.361Z,99405.38
2023-04-02T08:32:54.657Z,99405.25
2023-04-02T08:35:57.573Z,99407.41
2023-04-02T08:38:59.874Z,99393.16
2023-04-02T08:42:24.572Z,99418.47
2023-04-02T08:45:59.873Z,99418.66
2023-04-02T08:49:05.769Z,99422.78
2023-04-02T08:52:32.652Z,99434.38
2023-04-02T08:55:43.466Z,99429.16
2023-04-02T08:58:59.552Z,99419.66
2023-04-02T09:02:32.462Z,99437.22
2023-04-02T09:05:39.855Z,99440.44
2023-04-02T17:16:44.336Z,99700.53
2023-04-02T17:19:51.064Z,99723.72
